MDT,Max TemperatureF,Mean TemperatureF,Min TemperatureF,Max Dew PointF,MeanDew PointF,Min DewpointF,Max Humidity, Mean Humidity, Min Humidity, Max Sea Level PressureIn, Mean Sea Level PressureIn, Min Sea Level PressureIn, Max VisibilityMiles, Mean VisibilityMiles, Min VisibilityMiles, Max Wind SpeedMPH, Mean Wind SpeedMPH, Max Gust SpeedMPH,PrecipitationIn, CloudCover, Events, WindDirDegrees
2014-3-1,39,33,26,33,29,22,100,86,51,29.81,29.71,29.58,10,6,1,29,12,41,0.11,5,Snow,216
2014-3-2,44,32,21,27,24,20,92,70,43,30.05,29.94,29.82,10,10,10,14,8,17,0.00,2,,277
2014-3-3,48,37,26,30,26,23,96,73,41,30.07,30.02,29.96,10,10,10,13,6,,0.00,0,,258
2014-3-4,45,35,25,31,27,24,96,76,47,30.06,29.95,29.87,10,10,10,23,7,31,0.00,3,,295
2014-3-5,48,34,19,25,22,17,100,68,33,30.18,30.12,30.07,10,10,10,13,5,,0.00,0,,207
2014-3-6,51,37,23,29,24,20,88,60,31,30.12,29.97,29.73,10,10,10,18,7,25,0.00,2,,220
2014-3-7,42,34,27,32,27,18,96,78,45,30.11,29.96,29.78,10,9,2,29,16,44,0.06,5,Snow,323
2014-3-8,46,34,21,23,20,18,89,65,33,30.38,30.24,30.13,10,10,10,15,8,21,0.00,0,,352
2014-3-9,53,35,17,23,16,8,92,56,17,30.42,30.29,30.16,10,10,10,12,6,18,0.00,0,,217
2014-3-10,55,38,23,26,17,11,85,47,19,30.16,29.99,29.78,10,10,10,22,9,32,0.00,0,,235
2014-3-11,37,28,19,22,17,12,85,60,39,30.19,30.02,29.83,10,10,10,23,14,30,0.00,2,,348
2014-3-12,42,30,19,21,13,8,92,57,25,30.27,30.19,30.14,10,10,10,16,9,29,0.00,0,,76
2014-3-13,45,31,17,26,19,13,89,65,35,30.14,30.04,29.95,10,10,10,12,5,,0.00,5,,265
2014-3-14,53,36,19,24,16,8,92,54,18,30.07,30.00,29.95,10,10,10,18,7,25,0.00,1,,301
2014-3-15,48,36,26,25,12,1,85,39,16,30.33,30.17,30.00,10,10,10,31,14,37,0.00,1,,334
2014-3-16,59,38,18,21,13,5,78,39,20,30.43,30.27,30.13,10,10,10,20,9,25,0.00,0,,311
2014-3-17,57,38,21,20,13,1,89,44,13,30.09,29.74,29.54,10,10,8,36,12,51,0.00,1,,285
2014-3-18,39,26,15,8,3,-5,62,40,18,30.11,29.91,29.70,10,10,10,18,12,29,0.00,0,,334
2014-3-19,45,27,10,10,5,0,77,47,19,30.26,30.17,30.10,10,10,10,13,8,18,0.00,0,,179
2014-3-20,55,32,9,13,6,1,80,43,12,30.21,30.06,29.92,10,10,10,18,6,23,0.00,0,,251
2014-3-21,53,38,25,17,14,9,66,43,21,29.94,29.87,29.81,10,10,10,13,8,17,0.00,2,,271
2014-3-22,50,34,21,26,16,5,82,47,23,30.12,29.94,29.79,10,10,10,17,8,25,0.00,2,,312
2014-3-23,54,32,10,14,10,5,77,46,18,30.21,30.13,30.06,10,10,10,21,6,28,0.00,0,,289
2014-3-24,57,34,12,15,11,7,84,43,16,30.23,30.16,30.10,10,10,10,10,5,16,0.00,0,,322
2014-3-25,57,38,19,15,12,10,77,39,15,30.12,29.92,29.68,10,10,10,16,8,24,0.00,0,,210
2014-3-26,50,37,24,31,25,13,100,74,28,29.76,29.60,29.40,10,6,0,30,12,44,0.13,5,Fog-Snow-Thunderstorm,257
2014-3-27,42,26,12,31,25,11,96,83,51,30.00,29.84,29.61,10,8,1,14,8,21,0.07,5,Snow,311
2014-3-28,48,34,21,29,22,16,96,67,29,30.17,30.07,29.94,10,10,10,13,8,17,0.00,2,,285
2014-3-29,55,36,18,24,20,15,92,53,26,30.18,30.05,29.82,10,10,10,22,8,31,0.00,0,,221
2014-3-30,44,34,24,31,27,20,96,77,42,29.97,29.78,29.49,10,5,0,34,18,50,0.10,6,Fog-Rain-Snow-Thunderstorm,242
2014-3-31,45,28,12,22,17,10,96,62,33,30.04,29.91,29.69,10,10,10,21,8,43,0.00,3,,203